createdAt,value
2022-10-22T00:01:10.421Z,1.00
2022-10-22T00:03:38.530Z,1.00
2022-10-22T00:06:07.099Z,1.00
2022-10-22T00:08:35.414Z,1.00
2022-10-22T00:11:10.315Z,1.00
2022-10-22T00:13:38.384Z,1.00
2022-10-22T00:16:07.953Z,1.00
2022-10-22T00:18:36.146Z,1.00
2022-10-22T00:21:04.551Z,1.00
2022-10-22T00:23:32.568Z,1.00
2022-10-22T00:26:00.759Z,1.00
2022-10-22T00:28:28.815Z,1.00
2022-10-22T00:30:58.644Z,1.00
2022-10-22T00:33:29.242Z,1.00
2022-10-22T00:35:57.793Z,1.00
2022-10-22T00:38:25.961Z,1.00
2022-10-22T00:40:54.199Z,1.00
2022-10-22T00:43:22.577Z,1.00
2022-10-22T00:45:50.951Z,1.00
2022-10-22T00:48:22.988Z,1.00
2022-10-22T00:50:56.482Z,32.50
2022-10-22T00:53:30.774Z,99.90
2022-10-22T00:55:59.063Z,99.90
2022-10-22T00:58:30.743Z,99.90
2022-10-22T01:00:59.537Z,99.90
2022-10-22T01:03:27.564Z,99.90
2022-10-22T01:05:59.303Z,99.90
2022-10-22T01:08:36.257Z,99.90
2022-10-22T01:11:14.859Z,99.90
2022-10-22T01:13:52.768Z,99.90
2022-10-22T01:16:28.568Z,1.00
2022-10-22T01:19:02.654Z,1.00
2022-10-22T01:21:35.674Z,99.90
2022-10-22T01:24:29.099Z,1.00
2022-10-22T01:27:11.129Z,1.00
2022-10-22T01:29:43.702Z,1.00
2022-10-22T01:32:16.477Z,1.00
2022-10-22T01:34:47.935Z,1.00
2022-10-22T01:37:18.234Z,1.00
2022-10-22T01:39:47.621Z,1.00
2022-10-22T01:42:16.122Z,1.00
2022-10-22T01:44:45.482Z,1.00
2022-10-22T01:47:22.207Z,1.00
2022-10-22T01:50:09.577Z,1.00
2022-10-22T01:52:52.767Z,1.00
2022-10-22T01:55:28.578Z,63.80
2022-10-22T01:58:09.790Z,21.00
2022-10-22T02:00:45.716Z,99.90
2022-10-22T02:03:19.965Z,99.90
2022-10-22T02:05:56.268Z,99.90
2022-10-22T02:08:28.151Z,99.90
2022-10-22T02:10:57.057Z,99.90
2022-10-22T02:13:28.339Z,99.90
2022-10-22T02:15:59.569Z,99.90
2022-10-22T02:18:34.302Z,99.90
2022-10-22T02:21:03.825Z,99.90
2022-10-22T02:23:31.801Z,99.90
2022-10-22T02:26:08.070Z,99.90
2022-10-22T02:28:40.710Z,99.90
2022-10-22T02:31:16.005Z,99.90
2022-10-22T02:33:48.654Z,99.90
2022-10-22T02:36:17.942Z,75.40
2022-10-22T02:38:48.439Z,99.60
2022-10-22T02:41:17.674Z,99.90
2022-10-22T02:43:50.594Z,99.90
2022-10-22T02:46:20.019Z,99.90
2022-10-22T02:48:48.317Z,5.10
2022-10-22T02:51:16.429Z,43.80
2022-10-22T02:53:44.466Z,7.00
2022-10-22T02:56:12.599Z,1.00
2022-10-22T02:58:40.830Z,5.00
2022-10-22T03:01:10.369Z,1.00
2022-10-22T03:03:41.999Z,1.00
2022-10-22T03:06:10.362Z,1.00
2022-10-22T03:08:38.489Z,1.00
2022-10-22T03:11:06.608Z,1.00
2022-10-22T03:13:34.689Z,1.00
2022-10-22T03:16:02.729Z,1.00
2022-10-22T03:18:30.848Z,1.00
2022-10-22T03:21:10.882Z,1.00
2022-10-22T03:23:40.089Z,1.00
2022-10-22T03:26:09.346Z,1.00
2022-10-22T03:28:38.057Z,1.00
2022-10-22T03:31:06.346Z,1.00
2022-10-22T03:33:34.482Z,1.00
2022-10-22T03:36:04.005Z,1.00
2022-10-22T03:38:32.338Z,28.00
2022-10-22T03:41:00.376Z,43.60
2022-10-22T03:43:29.003Z,99.90
2022-10-22T03:45:57.095Z,99.90
2022-10-22T03:48:25.245Z,99.90
2022-10-22T03:50:53.325Z,99.90
2022-10-22T03:53:22.798Z,99.90
2022-10-22T03:55:51.022Z,99.90
2022-10-22T03:58:19.083Z,4.10
2022-10-22T04:00:47.162Z,1.00
2022-10-22T04:03:15.220Z,1.00
2022-10-22T04:05:43.232Z,1.00
2022-10-22T04:08:11.296Z,1.00
2022-10-22T04:10:40.645Z,99.90
2022-10-22T04:13:08.633Z,93.50
2022-10-22T04:15:36.763Z,1.00
2022-10-22T04:18:05.022Z,1.00
2022-10-22T04:20:33.064Z,1.00
2022-10-22T04:23:01.092Z,1.00
2022-10-22T04:25:29.200Z,1.00
2022-10-22T04:27:58.576Z,1.00
2022-10-22T04:30:26.636Z,1.00
2022-10-22T04:32:54.700Z,1.00
2022-10-22T04:35:22.879Z,1.00
2022-10-22T04:37:51.027Z,91.60
2022-10-22T04:40:19.216Z,93.50
2022-10-22T04:42:47.236Z,1.00
2022-10-22T04:45:16.811Z,1.00
2022-10-22T04:47:44.928Z,1.00
2022-10-22T04:50:13.010Z,1.00
2022-10-22T04:52:41.019Z,1.00
2022-10-22T04:55:09.808Z,1.00
2022-10-22T04:57:38.109Z,1.00
2022-10-22T05:00:07.569Z,1.00
2022-10-22T05:02:37.200Z,1.00
2022-10-22T05:05:05.719Z,99.90
2022-10-22T05:07:33.917Z,99.90
2022-10-22T05:10:02.697Z,99.90
2022-10-22T05:12:30.983Z,99.90
2022-10-22T05:14:59.041Z,99.90
2022-10-22T05:17:27.350Z,99.90
2022-10-22T05:19:56.914Z,78.70
2022-10-22T05:22:24.981Z,60.70
2022-10-22T05:24:53.083Z,63.30
2022-10-22T05:27:21.149Z,93.90
2022-10-22T05:29:49.214Z,80.80
2022-10-22T05:32:17.337Z,14.40
2022-10-22T05:34:45.552Z,1.00
2022-10-22T05:37:14.953Z,1.00
2022-10-22T05:39:43.040Z,1.00
2022-10-22T05:42:11.054Z,1.00
2022-10-22T05:44:40.949Z,1.00
2022-10-22T05:47:10.378Z,1.00
2022-10-22T05:49:38.407Z,1.00
2022-10-22T05:52:06.657Z,1.00
2022-10-22T05:54:36.058Z,1.00
2022-10-22T05:57:04.247Z,1.00
2022-10-22T05:59:32.306Z,1.00
2022-10-22T06:02:00.450Z,1.00
2022-10-22T06:04:28.455Z,1.00
2022-10-22T06:06:56.624Z,1.00
2022-10-22T06:09:28.421Z,1.00
2022-10-22T06:11:58.726Z,1.00
2022-10-22T06:14:27.797Z,99.90
2022-10-22T06:16:56.495Z,99.90
2022-10-22T06:19:26.821Z,1.00
2022-10-22T06:21:55.301Z,1.00
2022-10-22T06:24:23.417Z,1.00
2022-10-22T06:26:51.804Z,1.00
2022-10-22T06:29:21.578Z,1.00
2022-10-22T06:31:49.771Z,1.00
2022-10-22T06:34:18.950Z,1.00
2022-10-22T06:36:47.659Z,1.00
2022-10-22T06:39:17.523Z,1.00
2022-10-22T06:41:45.956Z,1.00
2022-10-22T06:44:19.707Z,1.00
2022-10-22T06:46:50.646Z,1.00
2022-10-22T06:49:18.808Z,1.00
2022-10-22T06:51:47.106Z,1.00
2022-10-22T06:54:15.207Z,1.00
2022-10-22T06:56:43.273Z,1.00
2022-10-22T06:59:11.475Z,1.00
2022-10-22T07:01:40.118Z,1.00
2022-10-22T07:04:11.343Z,1.00
2022-10-22T07:06:39.401Z,1.00
2022-10-22T07:09:07.624Z,1.00
2022-10-22T07:11:42.357Z,1.00
2022-10-22T07:14:11.330Z,1.00
2022-10-22T07:16:42.081Z,1.00
2022-10-22T07:19:11.566Z,1.00
2022-10-22T07:21:39.756Z,1.00
2022-10-22T07:24:08.389Z,99.90
2022-10-22T07:26:36.974Z,1.00
2022-10-22T07:29:06.161Z,1.00
2022-10-22T07:31:34.386Z,1.00
2022-10-22T07:34:02.818Z,1.00
2022-10-22T07:36:32.375Z,1.00
2022-10-22T07:39:01.341Z,1.00
2022-10-22T07:41:30.864Z,1.00
2022-10-22T07:43:59.845Z,1.00
2022-10-22T07:46:28.425Z,1.00
2022-10-22T07:48:56.796Z,1.00
2022-10-22T07:51:25.026Z,1.00
2022-10-22T07:53:54.487Z,1.00
2022-10-22T07:56:22.597Z,1.00
2022-10-22T07:58:50.681Z,1.00
2022-10-22T08:01:18.961Z,1.00
2022-10-22T08:03:47.256Z,1.00
2022-10-22T08:06:15.693Z,1.00
2022-10-22T08:08:45.784Z,1.00
2022-10-22T08:11:15.399Z,1.00
2022-10-22T08:13:45.603Z,1.00
2022-10-22T08:16:14.546Z,1.00
2022-10-22T08:18:42.919Z,1.00
2022-10-22T08:21:11.660Z,1.00
2022-10-22T08:23:39.963Z,99.90
2022-10-22T08:26:08.133Z,99.90
2022-10-22T08:28:37.957Z,1.00
2022-10-22T08:31:07.415Z,1.00
2022-10-22T08:33:35.662Z,1.00
2022-10-22T08:36:03.795Z,1.00
2022-10-22T08:38:32.325Z,1.00
2022-10-22T08:41:09.786Z,1.00
2022-10-22T08:44:24.541Z,1.00
2022-10-22T08:47:22.351Z,1.00
2022-10-22T08:49:51.236Z,1.00
2022-10-22T08:52:20.969Z,1.00
2022-10-22T08:54:53.739Z,1.00
2022-10-22T08:57:45.703Z,1.00
2022-10-22T09:00:22.078Z,1.00
2022-10-22T09:03:02.960Z,1.00
2022-10-22T09:05:42.410Z,1.00
2022-10-22T09:08:12.459Z,1.00
2022-10-22T09:10:46.977Z,1.00
2022-10-22T09:13:19.218Z,1.00
2022-10-22T09:15:52.380Z,99.90
2022-10-22T09:18:33.275Z,99.90
2022-10-22T09:21:07.874Z,99.90
2022-10-22T09:23:40.948Z,99.90
2022-10-22T09:26:15.686Z,99.90
2022-10-22T09:28:44.789Z,99.90
2022-10-22T09:31:15.408Z,99.90
2022-10-22T09:33:45.895Z,99.90
2022-10-22T09:36:16.883Z,99.90
2022-10-22T09:38:49.040Z,99.90
2022-10-22T09:41:18.800Z,99.90
2022-10-22T09:43:48.379Z,99.90
2022-10-22T09:46:19.711Z,99.90
2022-10-22T09:48:51.353Z,99.90
2022-10-22T09:51:22.926Z,99.90
2022-10-22T09:53:57.998Z,99.90
2022-10-22T09:56:28.476Z,99.90
2022-10-22T09:58:58.413Z,99.90
2022-10-22T10:01:29.344Z,99.90
2022-10-22T10:04:09.401Z,99.90
2022-10-22T10:06:40.253Z,99.90
2022-10-22T10:09:17.224Z,99.90
2022-10-22T10:11:50.101Z,99.90
2022-10-22T10:14:22.679Z,99.90
2022-10-22T10:16:59.156Z,99.90
2022-10-22T10:19:50.534Z,99.90
2022-10-22T10:22:31.482Z,99.90
2022-10-22T10:25:13.701Z,99.90
2022-10-22T10:27:45.113Z,99.90
2022-10-22T10:30:16.577Z,99.90
2022-10-22T10:33:04.101Z,99.90
2022-10-22T10:35:40.472Z,99.90
2022-10-22T10:38:33.695Z,99.90
2022-10-22T10:41:12.013Z,57.50
2022-10-22T10:43:48.775Z,24.60
2022-10-22T10:46:24.172Z,1.00
2022-10-22T10:48:57.476Z,1.00
2022-10-22T10:51:38.659Z,1.00
2022-10-22T10:54:17.951Z,1.00
2022-10-22T10:56:50.076Z,1.00
2022-10-22T10:59:23.746Z,1.00
2022-10-22T11:02:11.887Z,1.00
2022-10-22T11:05:08.810Z,1.00
2022-10-22T11:07:42.747Z,1.00
2022-10-22T11:10:29.760Z,1.00
2022-10-22T11:13:04.983Z,1.00
2022-10-22T11:15:35.413Z,1.00
2022-10-22T11:18:12.428Z,1.00
2022-10-22T11:20:53.249Z,1.00
2022-10-22T11:23:29.288Z,1.00
2022-10-22T11:25:57.419Z,1.00
2022-10-22T11:28:30.110Z,1.00
2022-10-22T11:31:04.782Z,1.00
2022-10-22T11:33:43.782Z,1.00
2022-10-22T11:36:14.228Z,1.00
2022-10-22T11:38:42.429Z,1.00
2022-10-22T11:41:13.817Z,1.00
2022-10-22T11:43:59.222Z,1.00
2022-10-22T11:46:39.064Z,1.00
2022-10-22T11:49:19.435Z,1.00
2022-10-22T11:51:49.029Z,1.00
2022-10-22T11:54:42.715Z,1.00
2022-10-22T11:57:22.536Z,1.00
2022-10-22T11:59:53.685Z,1.00
2022-10-22T12:02:32.047Z,1.00
2022-10-22T12:05:43.089Z,1.00
2022-10-22T12:08:26.667Z,1.00
2022-10-22T12:11:17.786Z,1.00
2022-10-22T12:14:02.829Z,1.00
2022-10-22T12:16:55.246Z,1.00
2022-10-22T12:19:33.159Z,1.00
2022-10-22T12:22:12.630Z,1.00
2022-10-22T12:24:45.167Z,1.00
2022-10-22T12:27:22.518Z,1.00
2022-10-22T12:29:55.698Z,1.00
2022-10-22T12:32:23.919Z,1.00
2022-10-22T12:34:53.385Z,1.00
2022-10-22T12:37:21.696Z,1.00
2022-10-22T12:39:52.174Z,1.00
2022-10-22T12:42:21.908Z,1.00
2022-10-22T12:44:55.769Z,1.00
2022-10-22T12:47:23.983Z,1.00
2022-10-22T12:49:52.350Z,1.00
2022-10-22T12:52:23.568Z,1.00
2022-10-22T12:54:54.835Z,1.00
2022-10-22T12:57:24.688Z,1.00
2022-10-22T12:59:53.245Z,1.00
2022-10-22T13:02:24.647Z,1.00
2022-10-22T13:05:17.579Z,1.00
2022-10-22T13:07:48.990Z,1.00
2022-10-22T13:10:23.789Z,1.00
2022-10-22T13:12:55.609Z,1.00
2022-10-22T13:15:35.642Z,1.00
2022-10-22T13:18:05.753Z,1.00
2022-10-22T13:20:37.703Z,1.00
2022-10-22T13:23:07.147Z,1.00
2022-10-22T13:25:38.699Z,1.00
2022-10-22T13:28:20.593Z,1.00
2022-10-22T13:30:54.490Z,1.00
2022-10-22T13:33:27.193Z,1.00
2022-10-22T13:35:56.138Z,1.00
2022-10-22T13:38:26.754Z,1.00
2022-10-22T13:40:56.708Z,1.00
2022-10-22T13:43:25.358Z,1.00
2022-10-22T13:45:56.139Z,1.00
2022-10-22T13:48:26.139Z,1.00
2022-10-22T13:50:55.128Z,1.00
2022-10-22T13:53:24.860Z,1.00
2022-10-22T13:55:52.929Z,1.00
2022-10-22T13:58:24.557Z,1.00
2022-10-22T14:00:55.749Z,1.00
2022-10-22T14:03:27.327Z,1.00
2022-10-22T14:05:55.512Z,1.00
2022-10-22T14:08:25.738Z,1.00
2022-10-22T14:10:54.129Z,1.00
2022-10-22T14:13:23.762Z,1.00
2022-10-22T14:15:53.167Z,1.00
2022-10-22T14:18:25.548Z,1.00
2022-10-22T14:20:56.068Z,1.00
2022-10-22T14:23:26.516Z,1.00
2022-10-22T14:25:55.104Z,1.00
2022-10-22T14:28:24.630Z,1.00
2022-10-22T14:30:53.457Z,1.00
2022-10-22T14:33:28.951Z,1.00
2022-10-22T14:36:00.347Z,1.00
2022-10-22T14:38:28.854Z,1.00
2022-10-22T14:40:57.424Z,1.00
2022-10-22T14:43:29.164Z,1.00
2022-10-22T14:45:57.697Z,1.00
2022-10-22T14:48:25.800Z,1.00
2022-10-22T14:50:55.490Z,1.00
2022-10-22T14:53:23.521Z,1.00
2022-10-22T14:55:55.471Z,1.00
2022-10-22T14:58:23.780Z,1.00
2022-10-22T15:00:53.585Z,1.00
2022-10-22T15:03:21.712Z,1.00
2022-10-22T15:05:53.746Z,1.00
2022-10-22T15:08:21.975Z,1.00
2022-10-22T15:10:59.840Z,1.00
2022-10-22T15:13:28.947Z,1.00
2022-10-22T15:15:58.750Z,1.00
2022-10-22T15:18:27.697Z,1.00
2022-10-22T15:20:57.029Z,1.00
2022-10-22T15:23:25.180Z,1.00
2022-10-22T15:25:53.287Z,1.00
2022-10-22T15:28:21.531Z,1.00
2022-10-22T15:30:54.070Z,1.00
2022-10-22T15:33:24.041Z,1.00
2022-10-22T15:35:52.351Z,1.00
2022-10-22T15:38:21.015Z,1.00
2022-10-22T15:40:49.230Z,1.00
2022-10-22T15:43:17.238Z,1.00
2022-10-22T15:45:45.304Z,1.00
2022-10-22T15:48:15.440Z,1.00
2022-10-22T15:50:45.079Z,1.00
2022-10-22T15:53:13.150Z,1.00
2022-10-22T15:55:41.228Z,1.00
2022-10-22T15:58:09.285Z,1.00
2022-10-22T16:00:37.451Z,1.00
2022-10-22T16:03:05.651Z,1.00
2022-10-22T16:05:33.676Z,1.00
2022-10-22T16:08:03.194Z,1.00
2022-10-22T16:10:31.284Z,1.00
2022-10-22T16:12:59.360Z,1.00
2022-10-22T16:15:27.427Z,1.00
2022-10-22T16:17:55.507Z,1.00
2022-10-22T16:20:23.580Z,1.00
2022-10-22T16:22:51.773Z,1.00
2022-10-22T16:25:21.308Z,1.00
2022-10-22T16:27:50.777Z,1.00
2022-10-22T16:30:19.360Z,1.00
2022-10-22T16:32:47.413Z,1.00
2022-10-22T16:35:15.638Z,1.00
2022-10-22T16:37:44.300Z,1.00
2022-10-22T16:40:13.733Z,1.00
2022-10-22T16:42:44.069Z,1.00
2022-10-22T16:45:12.666Z,1.00
2022-10-22T16:47:43.071Z,1.00
2022-10-22T16:50:11.691Z,1.00
2022-10-22T16:52:40.010Z,1.00
2022-10-22T16:55:08.831Z,1.00
2022-10-22T16:57:37.136Z,1.00
2022-10-22T17:00:08.200Z,1.00
2022-10-22T17:02:37.539Z,1.00
2022-10-22T17:05:06.427Z,1.00
2022-10-22T17:07:34.758Z,1.00
2022-10-22T17:10:03.503Z,1.00
2022-10-22T17:12:35.432Z,1.00
2022-10-22T17:15:04.789Z,1.00
2022-10-22T17:17:35.178Z,1.00
2022-10-22T17:20:03.351Z,1.00
2022-10-22T17:22:31.645Z,1.00
2022-10-22T17:25:13.376Z,1.00
2022-10-22T17:27:42.330Z,1.00
2022-10-22T17:30:13.954Z,1.00
2022-10-22T17:32:43.400Z,1.00
2022-10-22T17:35:11.921Z,5.20
2022-10-22T17:37:40.241Z,31.00
2022-10-22T17:40:09.794Z,1.70
2022-10-22T17:42:37.915Z,1.00
2022-10-22T17:45:07.067Z,4.40
2022-10-22T17:47:35.236Z,52.40
2022-10-22T17:50:05.050Z,99.90
2022-10-22T17:52:33.161Z,99.90
2022-10-22T17:55:01.177Z,99.90
2022-10-22T17:57:29.267Z,99.90
2022-10-22T17:59:57.411Z,99.90
2022-10-22T18:02:25.451Z,99.90
2022-10-22T18:04:53.875Z,99.90
2022-10-22T18:07:23.256Z,99.90
2022-10-22T18:09:51.323Z,99.90
2022-10-22T18:12:19.519Z,99.90
2022-10-22T18:14:47.772Z,1.00
2022-10-22T18:17:15.908Z,99.90
2022-10-22T18:19:44.020Z,1.00
2022-10-22T18:22:12.255Z,1.00
2022-10-22T18:24:41.733Z,1.00
2022-10-22T18:27:09.775Z,1.00
2022-10-22T18:29:38.505Z,1.00
2022-10-22T18:32:12.112Z,1.00
2022-10-22T18:34:41.002Z,1.00
2022-10-22T18:37:09.003Z,1.00
2022-10-22T18:39:37.065Z,1.00
2022-10-22T18:42:07.188Z,1.00
2022-10-22T18:44:36.331Z,1.00
2022-10-22T18:47:04.475Z,1.00
2022-10-22T18:49:32.670Z,1.00
2022-10-22T18:52:00.780Z,1.00
2022-10-22T18:54:28.941Z,1.00
2022-10-22T18:57:00.557Z,1.00
2022-10-22T18:59:32.550Z,1.00
2022-10-22T19:02:01.218Z,1.00
2022-10-22T19:04:33.199Z,1.00
2022-10-22T19:07:01.575Z,1.00
2022-10-22T19:09:29.900Z,1.00
2022-10-22T19:11:57.985Z,1.00
2022-10-22T19:14:26.072Z,1.00
2022-10-22T19:16:55.477Z,1.00
2022-10-22T19:19:24.414Z,1.00
2022-10-22T19:21:53.181Z,1.00
2022-10-22T19:24:21.757Z,1.00
2022-10-22T19:26:50.394Z,1.00
2022-10-22T19:29:19.756Z,1.00
2022-10-22T19:31:50.482Z,1.00
2022-10-22T19:34:20.180Z,1.00
2022-10-22T19:36:48.232Z,1.00
2022-10-22T19:39:17.192Z,1.00
2022-10-22T19:41:45.449Z,1.00
2022-10-22T19:44:13.979Z,1.00
2022-10-22T19:46:42.016Z,1.00
2022-10-22T19:49:12.089Z,1.00
2022-10-22T19:51:41.495Z,1.00
2022-10-22T19:54:18.298Z,1.00
2022-10-22T19:56:47.488Z,1.00
2022-10-22T19:59:16.012Z,26.40
2022-10-22T20:01:44.333Z,3.10
2022-10-22T20:04:16.297Z,1.00
2022-10-22T20:06:45.840Z,11.40
2022-10-22T20:09:14.181Z,1.00
2022-10-22T20:11:42.360Z,37.00
2022-10-22T20:14:10.427Z,63.30
2022-10-22T20:16:38.528Z,15.90
2022-10-22T20:19:08.672Z,68.10
2022-10-22T20:21:37.324Z,99.90
2022-10-22T20:24:07.140Z,99.90
2022-10-22T20:26:36.067Z,99.90
2022-10-22T20:29:04.268Z,99.90
2022-10-22T20:31:33.588Z,99.90
2022-10-22T20:34:02.586Z,99.90
2022-10-22T20:36:32.100Z,99.90
2022-10-22T20:39:02.525Z,99.90
2022-10-22T20:41:31.904Z,99.90
2022-10-22T20:44:00.629Z,99.90
2022-10-22T20:46:30.861Z,99.90
2022-10-22T20:49:01.208Z,99.90
2022-10-22T20:51:29.657Z,99.90
2022-10-22T20:53:57.684Z,99.90
2022-10-22T20:56:25.936Z,99.90
2022-10-22T20:59:04.171Z,99.90
2022-10-22T21:01:34.346Z,99.90
2022-10-22T21:04:02.454Z,99.90
2022-10-22T21:06:31.062Z,99.90
2022-10-22T21:08:59.161Z,99.90
2022-10-22T21:11:27.361Z,1.00
2022-10-22T21:13:56.794Z,99.90
2022-10-22T21:16:24.859Z,99.90
2022-10-22T21:18:52.979Z,1.00
2022-10-22T21:21:21.050Z,99.90
2022-10-22T21:23:50.184Z,1.00
2022-10-22T21:26:19.161Z,1.00
2022-10-22T21:28:47.301Z,1.00
2022-10-22T21:31:22.025Z,1.00
2022-10-22T21:33:51.173Z,1.00
2022-10-22T21:36:23.045Z,1.00
2022-10-22T21:38:52.023Z,1.00
2022-10-22T21:41:21.997Z,1.00
2022-10-22T21:43:50.474Z,1.00
2022-10-22T21:46:22.063Z,1.00
2022-10-22T21:48:54.185Z,1.00
2022-10-22T21:51:23.822Z,1.00
2022-10-22T21:56:27.327Z,99.90
2022-10-22T21:58:55.609Z,1.00
2022-10-22T22:01:25.943Z,99.90
2022-10-22T22:03:54.573Z,99.90
2022-10-22T22:06:27.324Z,99.90
2022-10-22T22:08:59.142Z,99.90
2022-10-22T22:11:28.703Z,99.90
2022-10-22T22:13:58.042Z,99.90
2022-10-22T22:16:29.597Z,99.90
2022-10-22T22:18:58.905Z,99.90
2022-10-22T22:21:27.368Z,99.90
2022-10-22T22:23:55.569Z,99.90
2022-10-22T22:26:28.712Z,99.90
2022-10-22T22:28:59.560Z,99.90
2022-10-22T22:31:30.312Z,1.00
2022-10-22T22:34:02.937Z,1.00
2022-10-22T22:36:35.176Z,1.00
2022-10-22T22:39:04.397Z,99.90
2022-10-22T22:41:32.506Z,99.90
2022-10-22T22:44:00.661Z,99.90
2022-10-22T22:46:30.262Z,99.90
2022-10-22T22:48:58.315Z,99.90
2022-10-22T22:51:26.525Z,99.90
2022-10-22T22:53:54.780Z,99.90
2022-10-22T22:56:24.672Z,99.90
2022-10-22T22:58:53.259Z,99.90
2022-10-22T23:01:23.569Z,99.90
2022-10-22T23:03:57.203Z,99.90
2022-10-22T23:06:26.316Z,99.90
2022-10-22T23:08:55.911Z,99.90
2022-10-22T23:11:25.514Z,99.90
2022-10-22T23:13:55.631Z,99.90
2022-10-22T23:16:28.151Z,99.90
2022-10-22T23:18:58.460Z,99.90
2022-10-22T23:21:28.826Z,99.90
2022-10-22T23:23:59.184Z,99.90
2022-10-22T23:26:29.363Z,99.90
2022-10-22T23:29:02.133Z,99.90
2022-10-22T23:31:30.566Z,99.90
2022-10-22T23:34:00.088Z,99.90
2022-10-22T23:36:28.664Z,99.90
2022-10-22T23:38:57.312Z,1.00
2022-10-22T23:41:25.974Z,1.00
2022-10-22T23:43:54.568Z,1.00
2022-10-22T23:46:22.914Z,1.00
2022-10-22T23:48:53.993Z,1.00
2022-10-22T23:51:24.537Z,1.00
2022-10-22T23:53:58.387Z,1.00
2022-10-22T23:56:28.504Z,1.00
2022-10-22T23:58:58.301Z,1.00
